sensor_id;sensor_type;location;lat;lon;timestamp;P1;durP1;ratioP1;P2;durP2;ratioP2
7128;SDS011;3606;52.930;8.644;2023-03-01T00:01:59;9.23;;;5.03;;
7128;SDS011;3606;52.930;8.644;2023-03-01T00:04:25;5.63;;;4.83;;
7128;SDS011;3606;52.930;8.644;2023-03-01T00:06:51;7.30;;;4.90;;
7128;SDS011;3606;52.930;8.644;2023-03-01T00:09:16;7.10;;;5.17;;
7128;SDS011;3606;52.930;8.644;2023-03-01T00:11:42;7.83;;;4.90;;
7128;SDS011;3606;52.930;8.644;2023-03-01T00:14:09;8.97;;;5.00;;
7128;SDS011;3606;52.930;8.644;2023-03-01T00:16:36;6.13;;;3.73;;
7128;SDS011;3606;52.930;8.644;2023-03-01T00:19:07;8.57;;;4.43;;
7128;SDS011;3606;52.930;8.644;2023-03-01T00:21:36;8.07;;;4.63;;
7128;SDS011;3606;52.930;8.644;2023-03-01T00:24:01;7.47;;;4.57;;
7128;SDS011;3606;52.930;8.644;2023-03-01T00:26:27;6.10;;;4.40;;
7128;SDS011;3606;52.930;8.644;2023-03-01T00:28:54;5.07;;;4.00;;
7128;SDS011;3606;52.930;8.644;2023-03-01T00:31:22;5.67;;;4.30;;
7128;SDS011;3606;52.930;8.644;2023-03-01T00:33:51;5.23;;;3.93;;
7128;SDS011;3606;52.930;8.644;2023-03-01T00:36:23;5.00;;;4.20;;
7128;SDS011;3606;52.930;8.644;2023-03-01T00:38:53;10.63;;;4.30;;
7128;SDS011;3606;52.930;8.644;2023-03-01T00:41:20;5.17;;;4.30;;
7128;SDS011;3606;52.930;8.644;2023-03-01T00:43:47;5.20;;;4.40;;
7128;SDS011;3606;52.930;8.644;2023-03-01T00:46:15;5.50;;;4.20;;
7128;SDS011;3606;52.930;8.644;2023-03-01T00:48:42;8.10;;;5.03;;
7128;SDS011;3606;52.930;8.644;2023-03-01T00:51:11;7.30;;;4.33;;
7128;SDS011;3606;52.930;8.644;2023-03-01T00:53:38;6.13;;;4.60;;
7128;SDS011;3606;52.930;8.644;2023-03-01T00:56:04;5.20;;;4.63;;
7128;SDS011;3606;52.930;8.644;2023-03-01T00:58:32;6.23;;;4.80;;
7128;SDS011;3606;52.930;8.644;2023-03-01T01:00:58;8.63;;;4.83;;
7128;SDS011;3606;52.930;8.644;2023-03-01T01:03:24;6.07;;;4.27;;
7128;SDS011;3606;52.930;8.644;2023-03-01T01:05:50;6.03;;;4.60;;
7128;SDS011;3606;52.930;8.644;2023-03-01T01:08:17;5.07;;;4.30;;
7128;SDS011;3606;52.930;8.644;2023-03-01T01:10:46;10.63;;;5.17;;
7128;SDS011;3606;52.930;8.644;2023-03-01T01:13:12;7.63;;;4.67;;
7128;SDS011;3606;52.930;8.644;2023-03-01T01:15:39;5.80;;;4.07;;
7128;SDS011;3606;52.930;8.644;2023-03-01T01:18:04;8.13;;;4.60;;
7128;SDS011;3606;52.930;8.644;2023-03-01T01:20:31;7.23;;;4.83;;
7128;SDS011;3606;52.930;8.644;2023-03-01T01:22:56;10.40;;;4.20;;
7128;SDS011;3606;52.930;8.644;2023-03-01T01:25:22;6.47;;;4.40;;
7128;SDS011;3606;52.930;8.644;2023-03-01T01:27:50;6.03;;;4.37;;
7128;SDS011;3606;52.930;8.644;2023-03-01T01:30:15;5.33;;;4.33;;
7128;SDS011;3606;52.930;8.644;2023-03-01T01:32:41;6.33;;;4.80;;
7128;SDS011;3606;52.930;8.644;2023-03-01T01:35:07;7.27;;;4.40;;
7128;SDS011;3606;52.930;8.644;2023-03-01T01:37:32;6.20;;;4.17;;
7128;SDS011;3606;52.930;8.644;2023-03-01T01:39:58;9.77;;;4.53;;
7128;SDS011;3606;52.930;8.644;2023-03-01T01:42:25;5.80;;;4.30;;
7128;SDS011;3606;52.930;8.644;2023-03-01T01:45:23;8.83;;;4.27;;
7128;SDS011;3606;52.930;8.644;2023-03-01T01:48:03;4.93;;;3.77;;
7128;SDS011;3606;52.930;8.644;2023-03-01T01:50:31;10.60;;;4.47;;
7128;SDS011;3606;52.930;8.644;2023-03-01T01:53:04;8.47;;;4.03;;
7128;SDS011;3606;52.930;8.644;2023-03-01T01:55:37;6.73;;;4.03;;
7128;SDS011;3606;52.930;8.644;2023-03-01T01:58:07;7.67;;;3.83;;
7128;SDS011;3606;52.930;8.644;2023-03-01T02:00:35;4.50;;;3.57;;
7128;SDS011;3606;52.930;8.644;2023-03-01T02:03:11;3.87;;;3.27;;
7128;SDS011;3606;52.930;8.644;2023-03-01T02:08:30;3.87;;;3.13;;
7128;SDS011;3606;52.930;8.644;2023-03-01T02:10:59;8.57;;;3.60;;
7128;SDS011;3606;52.930;8.644;2023-03-01T02:13:26;4.77;;;3.20;;
7128;SDS011;3606;52.930;8.644;2023-03-01T02:15:52;6.13;;;3.53;;
7128;SDS011;3606;52.930;8.644;2023-03-01T02:18:18;5.03;;;3.43;;
7128;SDS011;3606;52.930;8.644;2023-03-01T02:21:08;4.60;;;3.23;;
7128;SDS011;3606;52.930;8.644;2023-03-01T02:23:54;12.53;;;4.50;;
7128;SDS011;3606;52.930;8.644;2023-03-01T02:26:23;5.13;;;3.63;;
7128;SDS011;3606;52.930;8.644;2023-03-01T02:28:59;3.97;;;3.30;;
7128;SDS011;3606;52.930;8.644;2023-03-01T02:31:25;4.83;;;3.37;;
7128;SDS011;3606;52.930;8.644;2023-03-01T02:34:06;6.43;;;4.03;;
7128;SDS011;3606;52.930;8.644;2023-03-01T02:36:39;7.70;;;3.57;;
7128;SDS011;3606;52.930;8.644;2023-03-01T02:39:14;4.87;;;3.40;;
7128;SDS011;3606;52.930;8.644;2023-03-01T02:41:48;5.37;;;4.13;;
7128;SDS011;3606;52.930;8.644;2023-03-01T02:44:16;5.57;;;3.80;;
7128;SDS011;3606;52.930;8.644;2023-03-01T02:46:43;4.63;;;3.63;;
7128;SDS011;3606;52.930;8.644;2023-03-01T02:49:28;7.00;;;3.97;;
7128;SDS011;3606;52.930;8.644;2023-03-01T02:54:33;8.00;;;4.20;;
7128;SDS011;3606;52.930;8.644;2023-03-01T02:57:16;4.80;;;3.47;;
7128;SDS011;3606;52.930;8.644;2023-03-01T02:59:43;4.67;;;3.60;;
7128;SDS011;3606;52.930;8.644;2023-03-01T03:02:22;5.03;;;4.00;;
7128;SDS011;3606;52.930;8.644;2023-03-01T03:05:22;5.90;;;3.93;;
7128;SDS011;3606;52.930;8.644;2023-03-01T03:07:54;9.17;;;4.17;;
7128;SDS011;3606;52.930;8.644;2023-03-01T03:10:27;8.90;;;4.33;;
7128;SDS011;3606;52.930;8.644;2023-03-01T03:12:59;6.37;;;3.83;;
7128;SDS011;3606;52.930;8.644;2023-03-01T03:15:28;4.23;;;3.60;;
7128;SDS011;3606;52.930;8.644;2023-03-01T03:17:54;6.70;;;3.77;;
7128;SDS011;3606;52.930;8.644;2023-03-01T03:20:23;5.40;;;3.97;;
7128;SDS011;3606;52.930;8.644;2023-03-01T03:22:51;6.23;;;3.93;;
7128;SDS011;3606;52.930;8.644;2023-03-01T03:25:19;7.10;;;3.97;;
7128;SDS011;3606;52.930;8.644;2023-03-01T03:27:46;8.47;;;4.37;;
7128;SDS011;3606;52.930;8.644;2023-03-01T03:30:15;7.10;;;4.03;;
7128;SDS011;3606;52.930;8.644;2023-03-01T03:32:43;5.97;;;3.97;;
7128;SDS011;3606;52.930;8.644;2023-03-01T03:35:17;6.47;;;3.93;;
7128;SDS011;3606;52.930;8.644;2023-03-01T03:37:49;5.37;;;3.77;;
7128;SDS011;3606;52.930;8.644;2023-03-01T03:43:01;8.20;;;4.57;;
7128;SDS011;3606;52.930;8.644;2023-03-01T03:45:28;6.17;;;4.23;;
7128;SDS011;3606;52.930;8.644;2023-03-01T03:47:54;5.03;;;3.80;;
7128;SDS011;3606;52.930;8.644;2023-03-01T03:50:19;6.87;;;4.63;;
7128;SDS011;3606;52.930;8.644;2023-03-01T03:52:45;5.67;;;4.50;;
7128;SDS011;3606;52.930;8.644;2023-03-01T03:55:11;6.57;;;4.07;;
7128;SDS011;3606;52.930;8.644;2023-03-01T03:57:38;6.93;;;4.20;;
7128;SDS011;3606;52.930;8.644;2023-03-01T04:00:08;6.30;;;4.10;;
7128;SDS011;3606;52.930;8.644;2023-03-01T04:02:42;7.33;;;3.67;;
7128;SDS011;3606;52.930;8.644;2023-03-01T04:05:08;5.00;;;3.60;;
7128;SDS011;3606;52.930;8.644;2023-03-01T04:07:36;4.70;;;3.73;;
7128;SDS011;3606;52.930;8.644;2023-03-01T04:10:03;4.47;;;3.43;;
7128;SDS011;3606;52.930;8.644;2023-03-01T04:12:31;6.47;;;3.90;;
7128;SDS011;3606;52.930;8.644;2023-03-01T04:14:58;7.27;;;4.27;;
7128;SDS011;3606;52.930;8.644;2023-03-01T04:17:25;5.90;;;3.80;;
7128;SDS011;3606;52.930;8.644;2023-03-01T04:19:50;7.23;;;3.27;;
7128;SDS011;3606;52.930;8.644;2023-03-01T04:22:16;3.40;;;2.97;;
7128;SDS011;3606;52.930;8.644;2023-03-01T04:24:43;3.70;;;3.33;;
7128;SDS011;3606;52.930;8.644;2023-03-01T04:27:10;4.07;;;3.67;;
7128;SDS011;3606;52.930;8.644;2023-03-01T04:29:36;3.53;;;3.20;;
7128;SDS011;3606;52.930;8.644;2023-03-01T04:32:02;5.47;;;3.67;;
7128;SDS011;3606;52.930;8.644;2023-03-01T04:34:28;4.60;;;3.37;;
7128;SDS011;3606;52.930;8.644;2023-03-01T04:36:54;3.70;;;3.17;;
7128;SDS011;3606;52.930;8.644;2023-03-01T04:39:20;4.07;;;3.37;;
7128;SDS011;3606;52.930;8.644;2023-03-01T04:41:46;4.03;;;3.00;;
7128;SDS011;3606;52.930;8.644;2023-03-01T04:44:12;4.57;;;3.13;;
7128;SDS011;3606;52.930;8.644;2023-03-01T04:46:37;6.03;;;3.70;;
7128;SDS011;3606;52.930;8.644;2023-03-01T04:49:03;5.20;;;3.10;;
7128;SDS011;3606;52.930;8.644;2023-03-01T04:51:30;5.77;;;3.50;;
7128;SDS011;3606;52.930;8.644;2023-03-01T04:53:57;3.73;;;3.23;;
7128;SDS011;3606;52.930;8.644;2023-03-01T04:56:23;4.27;;;3.50;;
7128;SDS011;3606;52.930;8.644;2023-03-01T04:58:48;4.83;;;3.57;;
7128;SDS011;3606;52.930;8.644;2023-03-01T05:01:16;5.13;;;3.70;;
7128;SDS011;3606;52.930;8.644;2023-03-01T05:03:44;4.83;;;3.30;;
7128;SDS011;3606;52.930;8.644;2023-03-01T05:06:14;4.60;;;3.90;;
7128;SDS011;3606;52.930;8.644;2023-03-01T05:08:42;3.20;;;2.90;;
7128;SDS011;3606;52.930;8.644;2023-03-01T05:11:08;5.47;;;4.10;;
7128;SDS011;3606;52.930;8.644;2023-03-01T05:13:34;6.13;;;3.53;;
7128;SDS011;3606;52.930;8.644;2023-03-01T05:16:02;3.87;;;3.23;;
7128;SDS011;3606;52.930;8.644;2023-03-01T05:18:29;3.20;;;2.90;;
7128;SDS011;3606;52.930;8.644;2023-03-01T05:21:03;4.57;;;3.50;;
7128;SDS011;3606;52.930;8.644;2023-03-01T05:23:29;6.13;;;3.60;;
7128;SDS011;3606;52.930;8.644;2023-03-01T05:25:59;6.90;;;3.60;;
7128;SDS011;3606;52.930;8.644;2023-03-01T05:28:26;4.40;;;3.40;;
7128;SDS011;3606;52.930;8.644;2023-03-01T05:30:53;4.27;;;3.57;;
7128;SDS011;3606;52.930;8.644;2023-03-01T05:33:19;4.60;;;3.07;;
7128;SDS011;3606;52.930;8.644;2023-03-01T05:35:46;7.20;;;3.53;;
7128;SDS011;3606;52.930;8.644;2023-03-01T05:38:13;8.57;;;3.93;;
7128;SDS011;3606;52.930;8.644;2023-03-01T05:40:40;4.40;;;3.30;;
7128;SDS011;3606;52.930;8.644;2023-03-01T05:43:10;5.97;;;3.90;;
7128;SDS011;3606;52.930;8.644;2023-03-01T05:45:37;4.80;;;3.30;;
7128;SDS011;3606;52.930;8.644;2023-03-01T05:48:03;4.30;;;3.90;;
7128;SDS011;3606;52.930;8.644;2023-03-01T05:50:32;4.40;;;3.47;;
7128;SDS011;3606;52.930;8.644;2023-03-01T05:53:02;5.00;;;3.30;;
7128;SDS011;3606;52.930;8.644;2023-03-01T05:55:31;5.00;;;3.37;;
7128;SDS011;3606;52.930;8.644;2023-03-01T05:57:58;4.27;;;3.80;;
7128;SDS011;3606;52.930;8.644;2023-03-01T06:00:25;6.47;;;3.90;;
7128;SDS011;3606;52.930;8.644;2023-03-01T06:02:52;6.90;;;4.20;;
7128;SDS011;3606;52.930;8.644;2023-03-01T06:05:19;4.40;;;3.80;;
7128;SDS011;3606;52.930;8.644;2023-03-01T06:07:44;3.90;;;3.20;;
7128;SDS011;3606;52.930;8.644;2023-03-01T06:10:11;5.07;;;3.47;;
7128;SDS011;3606;52.930;8.644;2023-03-01T06:12:38;6.20;;;3.67;;
7128;SDS011;3606;52.930;8.644;2023-03-01T06:15:04;3.87;;;2.97;;
7128;SDS011;3606;52.930;8.644;2023-03-01T06:17:32;4.53;;;4.10;;
7128;SDS011;3606;52.930;8.644;2023-03-01T06:20:02;6.23;;;4.30;;
7128;SDS011;3606;52.930;8.644;2023-03-01T06:22:30;10.63;;;4.47;;
7128;SDS011;3606;52.930;8.644;2023-03-01T06:24:55;6.23;;;4.30;;
7128;SDS011;3606;52.930;8.644;2023-03-01T06:27:21;5.70;;;4.17;;
7128;SDS011;3606;52.930;8.644;2023-03-01T06:29:46;9.57;;;4.83;;
7128;SDS011;3606;52.930;8.644;2023-03-01T06:32:12;5.83;;;4.10;;
7128;SDS011;3606;52.930;8.644;2023-03-01T06:34:38;6.43;;;4.37;;
7128;SDS011;3606;52.930;8.644;2023-03-01T06:37:04;4.60;;;3.90;;
7128;SDS011;3606;52.930;8.644;2023-03-01T06:39:31;4.87;;;3.60;;
7128;SDS011;3606;52.930;8.644;2023-03-01T06:41:57;5.70;;;4.60;;
7128;SDS011;3606;52.930;8.644;2023-03-01T06:44:23;8.00;;;4.80;;
7128;SDS011;3606;52.930;8.644;2023-03-01T06:46:48;8.83;;;3.77;;
7128;SDS011;3606;52.930;8.644;2023-03-01T06:49:14;5.90;;;4.73;;
7128;SDS011;3606;52.930;8.644;2023-03-01T06:51:41;6.47;;;4.50;;
7128;SDS011;3606;52.930;8.644;2023-03-01T06:54:06;7.80;;;5.43;;
7128;SDS011;3606;52.930;8.644;2023-03-01T06:56:32;10.53;;;6.43;;
7128;SDS011;3606;52.930;8.644;2023-03-01T06:58:58;15.97;;;9.17;;
7128;SDS011;3606;52.930;8.644;2023-03-01T07:01:24;19.23;;;9.97;;
7128;SDS011;3606;52.930;8.644;2023-03-01T07:03:49;16.13;;;9.63;;
7128;SDS011;3606;52.930;8.644;2023-03-01T07:06:15;18.87;;;7.33;;
7128;SDS011;3606;52.930;8.644;2023-03-01T07:08:40;15.10;;;7.83;;
7128;SDS011;3606;52.930;8.644;2023-03-01T07:11:06;11.93;;;6.63;;
7128;SDS011;3606;52.930;8.644;2023-03-01T07:13:32;10.80;;;5.87;;
7128;SDS011;3606;52.930;8.644;2023-03-01T07:15:57;9.90;;;5.47;;
7128;SDS011;3606;52.930;8.644;2023-03-01T07:18:23;11.50;;;6.53;;
7128;SDS011;3606;52.930;8.644;2023-03-01T07:20:49;10.80;;;6.70;;
7128;SDS011;3606;52.930;8.644;2023-03-01T07:23:14;9.63;;;6.13;;
7128;SDS011;3606;52.930;8.644;2023-03-01T07:25:40;8.30;;;6.27;;
7128;SDS011;3606;52.930;8.644;2023-03-01T07:28:06;11.63;;;6.00;;
7128;SDS011;3606;52.930;8.644;2023-03-01T07:30:31;11.70;;;6.00;;
7128;SDS011;3606;52.930;8.644;2023-03-01T07:32:57;18.27;;;6.97;;
7128;SDS011;3606;52.930;8.644;2023-03-01T07:35:23;11.17;;;6.70;;
7128;SDS011;3606;52.930;8.644;2023-03-01T07:37:50;10.43;;;6.60;;
7128;SDS011;3606;52.930;8.644;2023-03-01T07:40:16;10.67;;;6.93;;
7128;SDS011;3606;52.930;8.644;2023-03-01T07:42:42;7.63;;;6.27;;
7128;SDS011;3606;52.930;8.644;2023-03-01T07:45:07;8.20;;;5.73;;
7128;SDS011;3606;52.930;8.644;2023-03-01T07:47:33;11.50;;;6.40;;
7128;SDS011;3606;52.930;8.644;2023-03-01T07:49:59;8.63;;;6.30;;
7128;SDS011;3606;52.930;8.644;2023-03-01T07:52:26;9.37;;;5.67;;
7128;SDS011;3606;52.930;8.644;2023-03-01T07:54:51;7.43;;;5.73;;
7128;SDS011;3606;52.930;8.644;2023-03-01T07:57:17;7.80;;;5.80;;
7128;SDS011;3606;52.930;8.644;2023-03-01T07:59:42;5.90;;;5.13;;
7128;SDS011;3606;52.930;8.644;2023-03-01T08:02:09;6.90;;;5.23;;
7128;SDS011;3606;52.930;8.644;2023-03-01T08:04:35;7.70;;;5.43;;
7128;SDS011;3606;52.930;8.644;2023-03-01T08:07:01;7.03;;;5.63;;
7128;SDS011;3606;52.930;8.644;2023-03-01T08:09:29;6.13;;;5.07;;
7128;SDS011;3606;52.930;8.644;2023-03-01T08:11:55;7.37;;;5.60;;
7128;SDS011;3606;52.930;8.644;2023-03-01T08:14:21;9.63;;;5.70;;
7128;SDS011;3606;52.930;8.644;2023-03-01T08:16:48;6.37;;;5.13;;
7128;SDS011;3606;52.930;8.644;2023-03-01T08:19:14;7.83;;;5.43;;
7128;SDS011;3606;52.930;8.644;2023-03-01T08:21:40;9.27;;;5.70;;
7128;SDS011;3606;52.930;8.644;2023-03-01T08:24:06;6.47;;;4.67;;
7128;SDS011;3606;52.930;8.644;2023-03-01T08:26:32;8.47;;;5.80;;
7128;SDS011;3606;52.930;8.644;2023-03-01T08:28:59;7.87;;;5.87;;
7128;SDS011;3606;52.930;8.644;2023-03-01T08:31:35;9.43;;;6.43;;
7128;SDS011;3606;52.930;8.644;2023-03-01T08:34:03;6.33;;;5.50;;
7128;SDS011;3606;52.930;8.644;2023-03-01T08:36:32;8.47;;;5.07;;
7128;SDS011;3606;52.930;8.644;2023-03-01T08:39:00;7.23;;;4.40;;
7128;SDS011;3606;52.930;8.644;2023-03-01T08:41:26;6.20;;;4.17;;
7128;SDS011;3606;52.930;8.644;2023-03-01T08:43:52;5.33;;;4.00;;
7128;SDS011;3606;52.930;8.644;2023-03-01T08:46:23;6.33;;;4.73;;
7128;SDS011;3606;52.930;8.644;2023-03-01T08:48:52;7.47;;;5.60;;
7128;SDS011;3606;52.930;8.644;2023-03-01T08:51:18;7.13;;;5.23;;
7128;SDS011;3606;52.930;8.644;2023-03-01T08:53:44;9.53;;;5.37;;
7128;SDS011;3606;52.930;8.644;2023-03-01T08:56:10;7.13;;;5.23;;
7128;SDS011;3606;52.930;8.644;2023-03-01T08:58:37;5.07;;;3.77;;
7128;SDS011;3606;52.930;8.644;2023-03-01T09:01:08;3.67;;;2.87;;
7128;SDS011;3606;52.930;8.644;2023-03-01T09:03:34;4.97;;;3.10;;
7128;SDS011;3606;52.930;8.644;2023-03-01T09:06:00;4.00;;;3.10;;
7128;SDS011;3606;52.930;8.644;2023-03-01T09:08:27;5.50;;;3.10;;
7128;SDS011;3606;52.930;8.644;2023-03-01T09:10:52;4.13;;;3.20;;
7128;SDS011;3606;52.930;8.644;2023-03-01T09:13:18;3.37;;;2.70;;
7128;SDS011;3606;52.930;8.644;2023-03-01T09:15:44;4.10;;;2.90;;
7128;SDS011;3606;52.930;8.644;2023-03-01T09:18:09;6.27;;;3.43;;
7128;SDS011;3606;52.930;8.644;2023-03-01T09:20:35;5.00;;;3.30;;
7128;SDS011;3606;52.930;8.644;2023-03-01T09:23:00;4.33;;;3.20;;
7128;SDS011;3606;52.930;8.644;2023-03-01T09:25:26;4.57;;;3.33;;
7128;SDS011;3606;52.930;8.644;2023-03-01T09:27:53;5.33;;;3.00;;
7128;SDS011;3606;52.930;8.644;2023-03-01T09:30:19;5.20;;;2.80;;
7128;SDS011;3606;52.930;8.644;2023-03-01T09:32:45;5.60;;;3.17;;
7128;SDS011;3606;52.930;8.644;2023-03-01T09:35:12;3.77;;;2.50;;
7128;SDS011;3606;52.930;8.644;2023-03-01T09:37:38;3.27;;;2.50;;
7128;SDS011;3606;52.930;8.644;2023-03-01T09:40:08;3.13;;;2.53;;
7128;SDS011;3606;52.930;8.644;2023-03-01T09:42:49;2.57;;;2.23;;
7128;SDS011;3606;52.930;8.644;2023-03-01T09:45:25;3.23;;;2.60;;
7128;SDS011;3606;52.930;8.644;2023-03-01T09:47:54;3.60;;;2.30;;
7128;SDS011;3606;52.930;8.644;2023-03-01T09:50:21;2.93;;;2.20;;
7128;SDS011;3606;52.930;8.644;2023-03-01T09:52:52;2.53;;;2.30;;
7128;SDS011;3606;52.930;8.644;2023-03-01T09:55:26;3.57;;;2.47;;
7128;SDS011;3606;52.930;8.644;2023-03-01T09:58:00;2.93;;;2.57;;
7128;SDS011;3606;52.930;8.644;2023-03-01T10:00:42;3.03;;;2.40;;
7128;SDS011;3606;52.930;8.644;2023-03-01T10:03:15;2.63;;;2.00;;
7128;SDS011;3606;52.930;8.644;2023-03-01T10:05:57;3.97;;;2.30;;
7128;SDS011;3606;52.930;8.644;2023-03-01T10:08:48;2.97;;;2.40;;
7128;SDS011;3606;52.930;8.644;2023-03-01T10:13:55;4.83;;;3.10;;
7128;SDS011;3606;52.930;8.644;2023-03-01T10:16:57;3.53;;;2.90;;
7128;SDS011;3606;52.930;8.644;2023-03-01T10:19:38;3.80;;;2.50;;
7128;SDS011;3606;52.930;8.644;2023-03-01T10:24:53;3.60;;;3.10;;
7128;SDS011;3606;52.930;8.644;2023-03-01T10:27:24;5.30;;;2.97;;
7128;SDS011;3606;52.930;8.644;2023-03-01T10:32:44;4.10;;;3.00;;
7128;SDS011;3606;52.930;8.644;2023-03-01T10:35:21;7.57;;;3.30;;
7128;SDS011;3606;52.930;8.644;2023-03-01T10:40:31;4.50;;;3.43;;
7128;SDS011;3606;52.930;8.644;2023-03-01T10:42:58;5.13;;;3.53;;
7128;SDS011;3606;52.930;8.644;2023-03-01T10:50:44;5.07;;;3.67;;
7128;SDS011;3606;52.930;8.644;2023-03-01T10:53:22;6.30;;;4.40;;
7128;SDS011;3606;52.930;8.644;2023-03-01T10:55:56;8.27;;;4.40;;
7128;SDS011;3606;52.930;8.644;2023-03-01T10:58:23;5.57;;;4.00;;
7128;SDS011;3606;52.930;8.644;2023-03-01T11:08:30;6.27;;;4.67;;
7128;SDS011;3606;52.930;8.644;2023-03-01T11:13:49;9.80;;;5.33;;
7128;SDS011;3606;52.930;8.644;2023-03-01T11:16:38;12.50;;;6.00;;
7128;SDS011;3606;52.930;8.644;2023-03-01T11:21:34;9.70;;;6.30;;
7128;SDS011;3606;52.930;8.644;2023-03-01T11:24:21;9.67;;;6.27;;
7128;SDS011;3606;52.930;8.644;2023-03-01T11:26:53;8.67;;;5.90;;
7128;SDS011;3606;52.930;8.644;2023-03-01T11:30:21;7.63;;;5.67;;
7128;SDS011;3606;52.930;8.644;2023-03-01T11:32:23;8.87;;;6.20;;
7128;SDS011;3606;52.930;8.644;2023-03-01T11:35:37;8.70;;;6.33;;
7128;SDS011;3606;52.930;8.644;2023-03-01T11:40:16;8.47;;;6.23;;
7128;SDS011;3606;52.930;8.644;2023-03-01T11:42:53;9.80;;;6.97;;
7128;SDS011;3606;52.930;8.644;2023-03-01T11:45:43;8.43;;;6.23;;
7128;SDS011;3606;52.930;8.644;2023-03-01T11:50:49;10.53;;;6.50;;
7128;SDS011;3606;52.930;8.644;2023-03-01T11:53:23;8.43;;;6.67;;
7128;SDS011;3606;52.930;8.644;2023-03-01T11:56:26;11.37;;;6.73;;
7128;SDS011;3606;52.930;8.644;2023-03-01T11:59:02;8.23;;;6.90;;
7128;SDS011;3606;52.930;8.644;2023-03-01T12:10:13;8.33;;;6.47;;
7128;SDS011;3606;52.930;8.644;2023-03-01T12:13:23;8.87;;;6.67;;
7128;SDS011;3606;52.930;8.644;2023-03-01T12:15:58;7.50;;;6.43;;
7128;SDS011;3606;52.930;8.644;2023-03-01T12:21:34;9.63;;;6.50;;
7128;SDS011;3606;52.930;8.644;2023-03-01T12:27:06;8.00;;;6.07;;
7128;SDS011;3606;52.930;8.644;2023-03-01T12:47:04;7.03;;;5.53;;
7128;SDS011;3606;52.930;8.644;2023-03-01T12:50:02;7.83;;;5.37;;
7128;SDS011;3606;52.930;8.644;2023-03-01T12:52:47;6.20;;;5.30;;
7128;SDS011;3606;52.930;8.644;2023-03-01T12:55:23;7.40;;;5.47;;
7128;SDS011;3606;52.930;8.644;2023-03-01T13:06:21;5.70;;;5.10;;
7128;SDS011;3606;52.930;8.644;2023-03-01T13:08:50;6.13;;;5.50;;
7128;SDS011;3606;52.930;8.644;2023-03-01T13:11:25;6.93;;;5.27;;
7128;SDS011;3606;52.930;8.644;2023-03-01T13:13:51;5.90;;;5.20;;
7128;SDS011;3606;52.930;8.644;2023-03-01T13:16:21;6.63;;;5.43;;
7128;SDS011;3606;52.930;8.644;2023-03-01T13:21:40;7.27;;;5.93;;
7128;SDS011;3606;52.930;8.644;2023-03-01T13:24:27;7.30;;;5.47;;
7128;SDS011;3606;52.930;8.644;2023-03-01T13:29:48;7.37;;;6.07;;
7128;SDS011;3606;52.930;8.644;2023-03-01T13:32:26;6.70;;;5.63;;
7128;SDS011;3606;52.930;8.644;2023-03-01T13:35:48;7.93;;;6.20;;
7128;SDS011;3606;52.930;8.644;2023-03-01T13:37:51;8.47;;;6.37;;
7128;SDS011;3606;52.930;8.644;2023-03-01T13:42:48;9.10;;;6.10;;
7128;SDS011;3606;52.930;8.644;2023-03-01T13:47:53;8.20;;;5.93;;
7128;SDS011;3606;52.930;8.644;2023-03-01T13:50:53;7.83;;;5.83;;
7128;SDS011;3606;52.930;8.644;2023-03-01T13:53:24;8.37;;;6.50;;
7128;SDS011;3606;52.930;8.644;2023-03-01T13:55:55;7.23;;;6.07;;
7128;SDS011;3606;52.930;8.644;2023-03-01T14:00:55;9.30;;;5.60;;
7128;SDS011;3606;52.930;8.644;2023-03-01T14:03:21;6.20;;;5.37;;
7128;SDS011;3606;52.930;8.644;2023-03-01T14:08:25;7.63;;;6.00;;
7128;SDS011;3606;52.930;8.644;2023-03-01T14:13:40;6.90;;;5.40;;
7128;SDS011;3606;52.930;8.644;2023-03-01T14:19:12;7.80;;;5.93;;
7128;SDS011;3606;52.930;8.644;2023-03-01T14:21:44;7.77;;;5.87;;
7128;SDS011;3606;52.930;8.644;2023-03-01T14:24:18;6.70;;;5.77;;
7128;SDS011;3606;52.930;8.644;2023-03-01T14:26:46;7.67;;;5.90;;
7128;SDS011;3606;52.930;8.644;2023-03-01T14:29:23;6.70;;;5.27;;
7128;SDS011;3606;52.930;8.644;2023-03-01T14:32:07;6.37;;;5.47;;
7128;SDS011;3606;52.930;8.644;2023-03-01T14:34:53;9.60;;;6.07;;
7128;SDS011;3606;52.930;8.644;2023-03-01T14:37:21;7.07;;;5.50;;
7128;SDS011;3606;52.930;8.644;2023-03-01T14:39:50;6.80;;;5.63;;
7128;SDS011;3606;52.930;8.644;2023-03-01T14:42:17;5.97;;;5.30;;
7128;SDS011;3606;52.930;8.644;2023-03-01T14:44:45;8.03;;;6.27;;
7128;SDS011;3606;52.930;8.644;2023-03-01T14:47:14;8.93;;;5.90;;
7128;SDS011;3606;52.930;8.644;2023-03-01T14:49:43;8.23;;;5.87;;
7128;SDS011;3606;52.930;8.644;2023-03-01T14:52:20;7.93;;;6.63;;
7128;SDS011;3606;52.930;8.644;2023-03-01T14:54:50;7.13;;;5.97;;
7128;SDS011;3606;52.930;8.644;2023-03-01T14:57:25;7.07;;;5.40;;
7128;SDS011;3606;52.930;8.644;2023-03-01T14:59:52;9.63;;;6.40;;
7128;SDS011;3606;52.930;8.644;2023-03-01T15:02:31;8.37;;;6.03;;
7128;SDS011;3606;52.930;8.644;2023-03-01T15:04:58;9.83;;;6.17;;
7128;SDS011;3606;52.930;8.644;2023-03-01T15:07:31;6.87;;;5.70;;
7128;SDS011;3606;52.930;8.644;2023-03-01T15:10:00;10.00;;;6.07;;
7128;SDS011;3606;52.930;8.644;2023-03-01T15:14:54;7.53;;;5.60;;
7128;SDS011;3606;52.930;8.644;2023-03-01T15:17:34;10.27;;;6.03;;
7128;SDS011;3606;52.930;8.644;2023-03-01T15:20:03;6.07;;;5.23;;
7128;SDS011;3606;52.930;8.644;2023-03-01T15:22:31;8.77;;;5.50;;
7128;SDS011;3606;52.930;8.644;2023-03-01T15:24:57;7.17;;;5.50;;
7128;SDS011;3606;52.930;8.644;2023-03-01T15:27:24;6.77;;;5.30;;
7128;SDS011;3606;52.930;8.644;2023-03-01T15:29:57;8.57;;;5.67;;
7128;SDS011;3606;52.930;8.644;2023-03-01T15:32:32;8.57;;;6.00;;
7128;SDS011;3606;52.930;8.644;2023-03-01T15:34:59;10.97;;;5.73;;
7128;SDS011;3606;52.930;8.644;2023-03-01T15:37:49;7.63;;;5.70;;
7128;SDS011;3606;52.930;8.644;2023-03-01T15:40:17;9.67;;;6.40;;
7128;SDS011;3606;52.930;8.644;2023-03-01T15:42:56;8.17;;;5.87;;
7128;SDS011;3606;52.930;8.644;2023-03-01T15:45:24;8.83;;;6.20;;
7128;SDS011;3606;52.930;8.644;2023-03-01T15:47:56;8.00;;;5.77;;
7128;SDS011;3606;52.930;8.644;2023-03-01T15:52:58;12.13;;;6.20;;
7128;SDS011;3606;52.930;8.644;2023-03-01T15:55:26;6.83;;;5.90;;
7128;SDS011;3606;52.930;8.644;2023-03-01T15:57:58;6.90;;;5.97;;
7128;SDS011;3606;52.930;8.644;2023-03-01T16:00:31;9.07;;;5.60;;
7128;SDS011;3606;52.930;8.644;2023-03-01T16:02:57;9.00;;;5.77;;
7128;SDS011;3606;52.930;8.644;2023-03-01T16:05:24;8.97;;;6.00;;
7128;SDS011;3606;52.930;8.644;2023-03-01T16:07:52;8.40;;;5.90;;
7128;SDS011;3606;52.930;8.644;2023-03-01T16:10:18;11.77;;;6.43;;
7128;SDS011;3606;52.930;8.644;2023-03-01T16:12:44;8.77;;;6.60;;
7128;SDS011;3606;52.930;8.644;2023-03-01T16:15:16;7.80;;;6.17;;
7128;SDS011;3606;52.930;8.644;2023-03-01T16:17:50;9.43;;;6.03;;
7128;SDS011;3606;52.930;8.644;2023-03-01T16:20:17;10.17;;;6.80;;
7128;SDS011;3606;52.930;8.644;2023-03-01T16:22:43;8.47;;;6.33;;
7128;SDS011;3606;52.930;8.644;2023-03-01T16:25:10;9.10;;;6.93;;
7128;SDS011;3606;52.930;8.644;2023-03-01T16:27:38;7.33;;;6.43;;
7128;SDS011;3606;52.930;8.644;2023-03-01T16:30:04;8.73;;;6.63;;
7128;SDS011;3606;52.930;8.644;2023-03-01T16:32:31;8.13;;;6.83;;
7128;SDS011;3606;52.930;8.644;2023-03-01T16:34:57;8.67;;;6.60;;
7128;SDS011;3606;52.930;8.644;2023-03-01T16:37:22;11.57;;;6.80;;
7128;SDS011;3606;52.930;8.644;2023-03-01T16:39:48;6.47;;;5.87;;
7128;SDS011;3606;52.930;8.644;2023-03-01T16:42:15;9.37;;;6.53;;
7128;SDS011;3606;52.930;8.644;2023-03-01T16:44:42;7.37;;;6.00;;
7128;SDS011;3606;52.930;8.644;2023-03-01T16:47:07;11.97;;;6.97;;
7128;SDS011;3606;52.930;8.644;2023-03-01T16:49:33;9.70;;;7.10;;
7128;SDS011;3606;52.930;8.644;2023-03-01T16:51:58;11.27;;;6.73;;
7128;SDS011;3606;52.930;8.644;2023-03-01T16:54:24;8.23;;;6.20;;
7128;SDS011;3606;52.930;8.644;2023-03-01T16:56:50;9.77;;;6.43;;
7128;SDS011;3606;52.930;8.644;2023-03-01T16:59:15;12.20;;;7.10;;
7128;SDS011;3606;52.930;8.644;2023-03-01T17:01:43;9.00;;;6.90;;
7128;SDS011;3606;52.930;8.644;2023-03-01T17:04:12;11.40;;;6.70;;
7128;SDS011;3606;52.930;8.644;2023-03-01T17:06:38;9.07;;;6.90;;
7128;SDS011;3606;52.930;8.644;2023-03-01T17:09:03;9.30;;;6.33;;
7128;SDS011;3606;52.930;8.644;2023-03-01T17:11:29;10.33;;;6.70;;
7128;SDS011;3606;52.930;8.644;2023-03-01T17:13:55;10.60;;;7.80;;
7128;SDS011;3606;52.930;8.644;2023-03-01T17:16:21;12.80;;;7.90;;
7128;SDS011;3606;52.930;8.644;2023-03-01T17:18:47;11.50;;;8.40;;
7128;SDS011;3606;52.930;8.644;2023-03-01T17:21:13;11.33;;;7.73;;